sensor_id;sensor_type;location;lat;lon;timestamp;P1;durP1;ratioP1;P2;durP2;ratioP2
74630;SDS011;63138;55.082;38.804;2023-08-31T00:00:48;21.00;;;11.80;;
74630;SDS011;63138;55.082;38.804;2023-08-31T00:03:16;19.63;;;11.90;;
74630;SDS011;63138;55.082;38.804;2023-08-31T00:05:43;20.60;;;12.60;;
74630;SDS011;63138;55.082;38.804;2023-08-31T00:08:09;21.95;;;12.80;;
74630;SDS011;63138;55.082;38.804;2023-08-31T00:10:36;26.33;;;13.23;;
74630;SDS011;63138;55.082;38.804;2023-08-31T00:13:03;24.92;;;12.30;;
74630;SDS011;63138;55.082;38.804;2023-08-31T00:15:29;22.98;;;12.48;;
74630;SDS011;63138;55.082;38.804;2023-08-31T00:17:58;27.25;;;13.40;;
74630;SDS011;63138;55.082;38.804;2023-08-31T00:20:24;22.90;;;13.07;;
74630;SDS011;63138;55.082;38.804;2023-08-31T00:22:50;24.60;;;12.63;;
74630;SDS011;63138;55.082;38.804;2023-08-31T00:25:17;25.83;;;12.95;;
74630;SDS011;63138;55.082;38.804;2023-08-31T00:27:43;24.60;;;11.70;;
74630;SDS011;63138;55.082;38.804;2023-08-31T00:30:09;21.73;;;12.30;;
74630;SDS011;63138;55.082;38.804;2023-08-31T00:33:01;21.30;;;12.87;;
74630;SDS011;63138;55.082;38.804;2023-08-31T00:35:27;24.60;;;13.35;;
74630;SDS011;63138;55.082;38.804;2023-08-31T00:37:54;25.95;;;13.73;;
74630;SDS011;63138;55.082;38.804;2023-08-31T00:40:27;23.33;;;12.82;;
74630;SDS011;63138;55.082;38.804;2023-08-31T00:42:53;24.45;;;14.00;;
74630;SDS011;63138;55.082;38.804;2023-08-31T00:45:19;26.90;;;13.53;;
74630;SDS011;63138;55.082;38.804;2023-08-31T00:47:46;27.20;;;13.85;;
74630;SDS011;63138;55.082;38.804;2023-08-31T00:50:15;28.65;;;14.23;;
74630;SDS011;63138;55.082;38.804;2023-08-31T00:52:41;23.57;;;14.00;;
74630;SDS011;63138;55.082;38.804;2023-08-31T00:55:09;26.30;;;14.07;;
74630;SDS011;63138;55.082;38.804;2023-08-31T00:57:35;25.50;;;13.77;;
74630;SDS011;63138;55.082;38.804;2023-08-31T01:00:02;31.15;;;13.85;;
74630;SDS011;63138;55.082;38.804;2023-08-31T01:03:07;21.42;;;12.68;;
74630;SDS011;63138;55.082;38.804;2023-08-31T01:10:44;32.28;;;14.63;;
74630;SDS011;63138;55.082;38.804;2023-08-31T01:13:14;31.98;;;15.32;;
74630;SDS011;63138;55.082;38.804;2023-08-31T01:15:46;27.60;;;14.63;;
74630;SDS011;63138;55.082;38.804;2023-08-31T01:18:35;32.53;;;14.93;;
74630;SDS011;63138;55.082;38.804;2023-08-31T01:21:06;31.77;;;14.75;;
74630;SDS011;63138;55.082;38.804;2023-08-31T01:26:20;25.48;;;13.80;;
74630;SDS011;63138;55.082;38.804;2023-08-31T01:28:49;30.33;;;15.10;;
74630;SDS011;63138;55.082;38.804;2023-08-31T01:31:16;28.97;;;14.33;;
74630;SDS011;63138;55.082;38.804;2023-08-31T01:37:08;26.48;;;13.80;;
74630;SDS011;63138;55.082;38.804;2023-08-31T01:39:58;26.92;;;13.18;;
74630;SDS011;63138;55.082;38.804;2023-08-31T01:42:31;28.83;;;14.43;;
74630;SDS011;63138;55.082;38.804;2023-08-31T01:44:58;31.70;;;14.60;;
74630;SDS011;63138;55.082;38.804;2023-08-31T01:47:26;28.20;;;14.18;;
74630;SDS011;63138;55.082;38.804;2023-08-31T01:49:53;27.38;;;14.75;;
74630;SDS011;63138;55.082;38.804;2023-08-31T01:52:18;26.40;;;15.53;;
74630;SDS011;63138;55.082;38.804;2023-08-31T01:54:44;27.67;;;14.10;;
74630;SDS011;63138;55.082;38.804;2023-08-31T01:57:10;26.65;;;15.27;;
74630;SDS011;63138;55.082;38.804;2023-08-31T01:59:56;28.20;;;14.85;;
74630;SDS011;63138;55.082;38.804;2023-08-31T02:02:21;28.90;;;15.23;;
74630;SDS011;63138;55.082;38.804;2023-08-31T02:04:48;30.35;;;14.98;;
74630;SDS011;63138;55.082;38.804;2023-08-31T02:07:15;28.80;;;15.43;;
74630;SDS011;63138;55.082;38.804;2023-08-31T02:09:41;28.43;;;14.57;;
74630;SDS011;63138;55.082;38.804;2023-08-31T02:12:07;28.55;;;14.70;;
74630;SDS011;63138;55.082;38.804;2023-08-31T02:14:35;30.25;;;15.45;;
74630;SDS011;63138;55.082;38.804;2023-08-31T02:17:01;27.97;;;14.93;;
74630;SDS011;63138;55.082;38.804;2023-08-31T02:19:26;19.67;;;10.50;;
74630;SDS011;63138;55.082;38.804;2023-08-31T02:21:52;30.37;;;15.33;;
74630;SDS011;63138;55.082;38.804;2023-08-31T02:24:18;29.13;;;14.65;;
74630;SDS011;63138;55.082;38.804;2023-08-31T02:26:44;29.25;;;15.35;;
74630;SDS011;63138;55.082;38.804;2023-08-31T02:29:10;27.08;;;13.20;;
74630;SDS011;63138;55.082;38.804;2023-08-31T02:31:36;31.90;;;15.43;;
74630;SDS011;63138;55.082;38.804;2023-08-31T02:34:04;23.95;;;13.27;;
74630;SDS011;63138;55.082;38.804;2023-08-31T02:36:29;30.10;;;14.23;;
74630;SDS011;63138;55.082;38.804;2023-08-31T02:38:56;30.30;;;14.53;;
74630;SDS011;63138;55.082;38.804;2023-08-31T02:41:22;29.95;;;13.57;;
74630;SDS011;63138;55.082;38.804;2023-08-31T02:43:50;27.48;;;16.05;;
74630;SDS011;63138;55.082;38.804;2023-08-31T02:46:17;31.83;;;13.93;;
74630;SDS011;63138;55.082;38.804;2023-08-31T02:48:43;28.60;;;14.25;;
74630;SDS011;63138;55.082;38.804;2023-08-31T02:51:09;28.17;;;13.30;;
74630;SDS011;63138;55.082;38.804;2023-08-31T02:53:36;26.15;;;13.43;;
74630;SDS011;63138;55.082;38.804;2023-08-31T02:56:20;25.55;;;14.63;;
74630;SDS011;63138;55.082;38.804;2023-08-31T02:58:45;27.97;;;14.87;;
74630;SDS011;63138;55.082;38.804;2023-08-31T03:01:29;30.63;;;15.70;;
74630;SDS011;63138;55.082;38.804;2023-08-31T03:03:55;28.47;;;14.77;;
74630;SDS011;63138;55.082;38.804;2023-08-31T03:06:22;27.67;;;15.25;;
74630;SDS011;63138;55.082;38.804;2023-08-31T03:08:47;30.95;;;15.43;;
74630;SDS011;63138;55.082;38.804;2023-08-31T03:11:13;29.80;;;15.37;;
74630;SDS011;63138;55.082;38.804;2023-08-31T03:13:41;29.70;;;15.85;;
74630;SDS011;63138;55.082;38.804;2023-08-31T03:16:07;25.23;;;15.10;;
74630;SDS011;63138;55.082;38.804;2023-08-31T03:18:33;25.83;;;13.75;;
74630;SDS011;63138;55.082;38.804;2023-08-31T03:20:59;27.17;;;14.70;;
74630;SDS011;63138;55.082;38.804;2023-08-31T03:23:26;20.33;;;11.93;;
74630;SDS011;63138;55.082;38.804;2023-08-31T03:25:52;28.52;;;15.02;;
74630;SDS011;63138;55.082;38.804;2023-08-31T03:28:20;25.27;;;14.40;;
74630;SDS011;63138;55.082;38.804;2023-08-31T03:30:46;23.48;;;12.77;;
74630;SDS011;63138;55.082;38.804;2023-08-31T03:33:19;20.87;;;12.37;;
74630;SDS011;63138;55.082;38.804;2023-08-31T03:35:45;20.55;;;12.65;;
74630;SDS011;63138;55.082;38.804;2023-08-31T03:38:11;25.33;;;12.63;;
74630;SDS011;63138;55.082;38.804;2023-08-31T03:40:37;18.63;;;10.18;;
74630;SDS011;63138;55.082;38.804;2023-08-31T03:43:02;18.65;;;11.52;;
74630;SDS011;63138;55.082;38.804;2023-08-31T03:45:28;22.23;;;13.00;;
74630;SDS011;63138;55.082;38.804;2023-08-31T03:47:54;22.83;;;11.60;;
74630;SDS011;63138;55.082;38.804;2023-08-31T03:50:20;25.80;;;12.90;;
74630;SDS011;63138;55.082;38.804;2023-08-31T03:52:46;25.20;;;13.55;;
74630;SDS011;63138;55.082;38.804;2023-08-31T03:55:11;33.50;;;12.05;;
74630;SDS011;63138;55.082;38.804;2023-08-31T03:57:37;20.80;;;12.90;;
74630;SDS011;63138;55.082;38.804;2023-08-31T04:00:11;26.83;;;12.93;;
74630;SDS011;63138;55.082;38.804;2023-08-31T04:02:43;28.35;;;13.13;;
74630;SDS011;63138;55.082;38.804;2023-08-31T04:05:13;27.85;;;12.43;;
74630;SDS011;63138;55.082;38.804;2023-08-31T04:07:43;23.57;;;12.67;;
74630;SDS011;63138;55.082;38.804;2023-08-31T04:10:09;25.77;;;13.25;;
74630;SDS011;63138;55.082;38.804;2023-08-31T04:12:35;28.23;;;14.20;;
74630;SDS011;63138;55.082;38.804;2023-08-31T04:15:01;29.70;;;14.67;;
74630;SDS011;63138;55.082;38.804;2023-08-31T04:17:29;19.02;;;11.88;;
74630;SDS011;63138;55.082;38.804;2023-08-31T04:19:55;26.73;;;14.15;;
74630;SDS011;63138;55.082;38.804;2023-08-31T04:22:21;19.13;;;10.87;;
74630;SDS011;63138;55.082;38.804;2023-08-31T04:24:47;22.50;;;11.63;;
74630;SDS011;63138;55.082;38.804;2023-08-31T04:27:12;18.43;;;11.40;;
74630;SDS011;63138;55.082;38.804;2023-08-31T04:29:38;19.60;;;10.13;;
74630;SDS011;63138;55.082;38.804;2023-08-31T04:32:04;19.83;;;10.57;;
74630;SDS011;63138;55.082;38.804;2023-08-31T04:34:30;15.55;;;9.82;;
74630;SDS011;63138;55.082;38.804;2023-08-31T04:36:56;17.15;;;8.95;;
74630;SDS011;63138;55.082;38.804;2023-08-31T04:39:22;16.73;;;9.73;;
74630;SDS011;63138;55.082;38.804;2023-08-31T04:41:48;17.08;;;10.32;;
74630;SDS011;63138;55.082;38.804;2023-08-31T04:44:13;14.40;;;8.00;;
74630;SDS011;63138;55.082;38.804;2023-08-31T04:46:39;12.73;;;7.73;;
74630;SDS011;63138;55.082;38.804;2023-08-31T04:49:05;20.47;;;10.10;;
74630;SDS011;63138;55.082;38.804;2023-08-31T04:51:32;17.17;;;10.07;;
74630;SDS011;63138;55.082;38.804;2023-08-31T04:54:00;15.73;;;9.25;;
74630;SDS011;63138;55.082;38.804;2023-08-31T04:56:29;15.68;;;8.77;;
74630;SDS011;63138;55.082;38.804;2023-08-31T04:58:57;16.17;;;9.57;;
74630;SDS011;63138;55.082;38.804;2023-08-31T05:01:23;15.90;;;9.18;;
74630;SDS011;63138;55.082;38.804;2023-08-31T05:03:49;19.52;;;9.05;;
74630;SDS011;63138;55.082;38.804;2023-08-31T05:06:34;16.48;;;9.65;;
74630;SDS011;63138;55.082;38.804;2023-08-31T05:08:59;19.03;;;9.00;;
74630;SDS011;63138;55.082;38.804;2023-08-31T05:11:25;17.52;;;8.90;;
74630;SDS011;63138;55.082;38.804;2023-08-31T05:13:51;14.40;;;9.02;;
74630;SDS011;63138;55.082;38.804;2023-08-31T05:16:17;17.17;;;8.57;;
74630;SDS011;63138;55.082;38.804;2023-08-31T05:18:43;17.17;;;8.63;;
74630;SDS011;63138;55.082;38.804;2023-08-31T05:21:08;17.37;;;9.23;;
74630;SDS011;63138;55.082;38.804;2023-08-31T05:23:34;13.97;;;9.00;;
74630;SDS011;63138;55.082;38.804;2023-08-31T05:26:00;16.20;;;8.77;;
74630;SDS011;63138;55.082;38.804;2023-08-31T05:28:26;13.90;;;8.57;;
74630;SDS011;63138;55.082;38.804;2023-08-31T05:30:53;14.38;;;9.27;;
74630;SDS011;63138;55.082;38.804;2023-08-31T05:33:20;16.77;;;9.37;;
74630;SDS011;63138;55.082;38.804;2023-08-31T05:35:52;14.90;;;8.50;;
74630;SDS011;63138;55.082;38.804;2023-08-31T05:38:19;15.05;;;9.20;;
74630;SDS011;63138;55.082;38.804;2023-08-31T05:40:45;14.00;;;9.45;;
74630;SDS011;63138;55.082;38.804;2023-08-31T05:43:14;13.07;;;8.77;;
74630;SDS011;63138;55.082;38.804;2023-08-31T05:45:41;16.37;;;9.77;;
74630;SDS011;63138;55.082;38.804;2023-08-31T05:48:08;12.98;;;9.00;;
74630;SDS011;63138;55.082;38.804;2023-08-31T05:50:34;15.23;;;8.60;;
74630;SDS011;63138;55.082;38.804;2023-08-31T05:53:01;11.13;;;7.63;;
74630;SDS011;63138;55.082;38.804;2023-08-31T05:55:27;16.70;;;8.80;;
74630;SDS011;63138;55.082;38.804;2023-08-31T05:57:53;12.57;;;8.25;;
74630;SDS011;63138;55.082;38.804;2023-08-31T06:00:19;15.27;;;8.73;;
74630;SDS011;63138;55.082;38.804;2023-08-31T06:02:44;10.93;;;8.67;;
74630;SDS011;63138;55.082;38.804;2023-08-31T06:05:10;15.70;;;8.73;;
74630;SDS011;63138;55.082;38.804;2023-08-31T06:07:42;12.40;;;8.10;;
74630;SDS011;63138;55.082;38.804;2023-08-31T06:10:08;9.55;;;7.38;;
74630;SDS011;63138;55.082;38.804;2023-08-31T06:12:35;8.48;;;7.45;;
74630;SDS011;63138;55.082;38.804;2023-08-31T06:15:02;8.18;;;6.50;;
74630;SDS011;63138;55.082;38.804;2023-08-31T06:17:28;9.15;;;7.22;;
74630;SDS011;63138;55.082;38.804;2023-08-31T06:19:54;11.43;;;6.47;;
74630;SDS011;63138;55.082;38.804;2023-08-31T06:22:21;9.98;;;6.95;;
74630;SDS011;63138;55.082;38.804;2023-08-31T06:24:49;8.95;;;7.03;;
74630;SDS011;63138;55.082;38.804;2023-08-31T06:27:17;13.70;;;7.28;;
74630;SDS011;63138;55.082;38.804;2023-08-31T06:29:43;8.90;;;7.00;;
74630;SDS011;63138;55.082;38.804;2023-08-31T06:32:08;10.97;;;7.07;;
74630;SDS011;63138;55.082;38.804;2023-08-31T06:34:34;11.45;;;7.28;;
74630;SDS011;63138;55.082;38.804;2023-08-31T06:37:01;11.60;;;6.93;;
74630;SDS011;63138;55.082;38.804;2023-08-31T06:39:26;10.43;;;6.47;;
74630;SDS011;63138;55.082;38.804;2023-08-31T06:41:52;10.43;;;6.47;;
74630;SDS011;63138;55.082;38.804;2023-08-31T06:44:25;11.30;;;6.38;;
74630;SDS011;63138;55.082;38.804;2023-08-31T06:46:51;11.03;;;6.77;;
74630;SDS011;63138;55.082;38.804;2023-08-31T06:49:16;9.48;;;6.88;;
74630;SDS011;63138;55.082;38.804;2023-08-31T06:51:42;12.27;;;7.47;;
74630;SDS011;63138;55.082;38.804;2023-08-31T06:54:08;9.60;;;6.43;;
74630;SDS011;63138;55.082;38.804;2023-08-31T06:56:35;9.77;;;6.73;;
74630;SDS011;63138;55.082;38.804;2023-08-31T06:59:02;8.43;;;6.83;;
74630;SDS011;63138;55.082;38.804;2023-08-31T07:01:28;8.38;;;6.22;;
74630;SDS011;63138;55.082;38.804;2023-08-31T07:03:55;10.18;;;6.35;;
74630;SDS011;63138;55.082;38.804;2023-08-31T07:06:21;7.10;;;5.90;;
74630;SDS011;63138;55.082;38.804;2023-08-31T07:08:47;7.90;;;6.15;;
74630;SDS011;63138;55.082;38.804;2023-08-31T07:11:13;12.95;;;7.30;;
74630;SDS011;63138;55.082;38.804;2023-08-31T07:13:40;8.05;;;6.32;;
74630;SDS011;63138;55.082;38.804;2023-08-31T07:16:06;9.60;;;6.43;;
74630;SDS011;63138;55.082;38.804;2023-08-31T07:18:32;7.93;;;6.30;;
74630;SDS011;63138;55.082;38.804;2023-08-31T07:20:59;7.07;;;5.82;;
74630;SDS011;63138;55.082;38.804;2023-08-31T07:23:25;7.13;;;6.05;;
74630;SDS011;63138;55.082;38.804;2023-08-31T07:25:50;10.10;;;6.77;;
74630;SDS011;63138;55.082;38.804;2023-08-31T07:28:17;9.68;;;6.85;;
74630;SDS011;63138;55.082;38.804;2023-08-31T07:30:43;9.20;;;6.53;;
74630;SDS011;63138;55.082;38.804;2023-08-31T07:33:09;6.93;;;5.53;;
74630;SDS011;63138;55.082;38.804;2023-08-31T07:35:53;8.05;;;5.85;;
74630;SDS011;63138;55.082;38.804;2023-08-31T07:38:19;8.33;;;6.47;;
74630;SDS011;63138;55.082;38.804;2023-08-31T07:40:45;9.63;;;6.20;;
74630;SDS011;63138;55.082;38.804;2023-08-31T07:43:11;7.40;;;6.00;;
74630;SDS011;63138;55.082;38.804;2023-08-31T07:45:36;8.13;;;5.90;;
74630;SDS011;63138;55.082;38.804;2023-08-31T07:48:02;8.70;;;6.03;;
74630;SDS011;63138;55.082;38.804;2023-08-31T07:50:29;9.97;;;6.37;;
74630;SDS011;63138;55.082;38.804;2023-08-31T07:52:55;7.88;;;5.85;;
74630;SDS011;63138;55.082;38.804;2023-08-31T07:55:20;7.85;;;5.75;;
74630;SDS011;63138;55.082;38.804;2023-08-31T07:57:47;8.90;;;5.70;;
74630;SDS011;63138;55.082;38.804;2023-08-31T08:00:13;8.43;;;5.78;;
74630;SDS011;63138;55.082;38.804;2023-08-31T08:02:40;7.05;;;6.05;;
74630;SDS011;63138;55.082;38.804;2023-08-31T08:05:07;8.27;;;6.35;;
74630;SDS011;63138;55.082;38.804;2023-08-31T08:07:33;8.80;;;5.57;;
74630;SDS011;63138;55.082;38.804;2023-08-31T08:09:58;10.57;;;6.80;;
74630;SDS011;63138;55.082;38.804;2023-08-31T08:12:25;7.10;;;6.40;;
74630;SDS011;63138;55.082;38.804;2023-08-31T08:14:51;7.90;;;6.50;;
74630;SDS011;63138;55.082;38.804;2023-08-31T08:17:17;8.25;;;5.35;;
74630;SDS011;63138;55.082;38.804;2023-08-31T08:19:42;8.77;;;6.13;;
74630;SDS011;63138;55.082;38.804;2023-08-31T08:22:10;6.82;;;5.60;;
74630;SDS011;63138;55.082;38.804;2023-08-31T08:24:58;12.65;;;5.82;;
74630;SDS011;63138;55.082;38.804;2023-08-31T08:27:24;6.67;;;5.83;;
74630;SDS011;63138;55.082;38.804;2023-08-31T08:29:50;7.20;;;5.60;;
74630;SDS011;63138;55.082;38.804;2023-08-31T08:32:15;9.30;;;5.33;;
74630;SDS011;63138;55.082;38.804;2023-08-31T08:34:43;8.00;;;5.60;;
74630;SDS011;63138;55.082;38.804;2023-08-31T08:37:09;6.95;;;5.50;;
74630;SDS011;63138;55.082;38.804;2023-08-31T08:39:35;7.28;;;5.57;;
74630;SDS011;63138;55.082;38.804;2023-08-31T08:42:02;8.67;;;6.17;;
74630;SDS011;63138;55.082;38.804;2023-08-31T08:44:32;8.85;;;6.00;;
74630;SDS011;63138;55.082;38.804;2023-08-31T08:46:59;6.82;;;5.10;;
74630;SDS011;63138;55.082;38.804;2023-08-31T08:49:26;8.53;;;5.93;;
74630;SDS011;63138;55.082;38.804;2023-08-31T08:51:52;5.90;;;5.10;;
74630;SDS011;63138;55.082;38.804;2023-08-31T08:54:19;7.28;;;5.65;;
74630;SDS011;63138;55.082;38.804;2023-08-31T08:56:47;10.68;;;6.35;;
74630;SDS011;63138;55.082;38.804;2023-08-31T08:59:13;7.73;;;5.60;;
74630;SDS011;63138;55.082;38.804;2023-08-31T09:01:40;7.37;;;5.27;;
74630;SDS011;63138;55.082;38.804;2023-08-31T09:04:06;7.68;;;5.68;;
74630;SDS011;63138;55.082;38.804;2023-08-31T09:06:35;5.38;;;4.50;;
74630;SDS011;63138;55.082;38.804;2023-08-31T09:09:01;7.32;;;5.50;;
74630;SDS011;63138;55.082;38.804;2023-08-31T09:11:27;7.10;;;5.60;;
74630;SDS011;63138;55.082;38.804;2023-08-31T09:13:59;8.23;;;5.40;;
74630;SDS011;63138;55.082;38.804;2023-08-31T09:16:25;9.35;;;5.45;;
74630;SDS011;63138;55.082;38.804;2023-08-31T09:18:54;8.80;;;5.00;;
74630;SDS011;63138;55.082;38.804;2023-08-31T09:21:20;8.82;;;5.28;;
74630;SDS011;63138;55.082;38.804;2023-08-31T09:23:47;7.30;;;5.30;;
74630;SDS011;63138;55.082;38.804;2023-08-31T09:26:21;8.03;;;4.83;;
74630;SDS011;63138;55.082;38.804;2023-08-31T09:28:47;6.93;;;5.28;;
74630;SDS011;63138;55.082;38.804;2023-08-31T09:31:16;8.85;;;5.70;;
74630;SDS011;63138;55.082;38.804;2023-08-31T09:33:51;11.67;;;5.07;;
74630;SDS011;63138;55.082;38.804;2023-08-31T09:36:17;9.82;;;5.78;;
74630;SDS011;63138;55.082;38.804;2023-08-31T09:38:45;6.57;;;4.53;;
74630;SDS011;63138;55.082;38.804;2023-08-31T09:41:11;8.63;;;5.22;;
74630;SDS011;63138;55.082;38.804;2023-08-31T09:43:39;8.05;;;5.95;;
74630;SDS011;63138;55.082;38.804;2023-08-31T09:46:05;11.37;;;5.20;;
74630;SDS011;63138;55.082;38.804;2023-08-31T09:48:31;6.88;;;4.60;;
74630;SDS011;63138;55.082;38.804;2023-08-31T09:50:57;6.97;;;4.82;;
74630;SDS011;63138;55.082;38.804;2023-08-31T09:53:23;7.32;;;5.60;;
74630;SDS011;63138;55.082;38.804;2023-08-31T09:55:50;7.40;;;5.05;;
74630;SDS011;63138;55.082;38.804;2023-08-31T09:58:22;8.53;;;5.27;;
74630;SDS011;63138;55.082;38.804;2023-08-31T10:00:52;5.90;;;4.68;;
74630;SDS011;63138;55.082;38.804;2023-08-31T10:03:19;8.38;;;5.63;;
74630;SDS011;63138;55.082;38.804;2023-08-31T10:05:49;7.95;;;5.13;;
74630;SDS011;63138;55.082;38.804;2023-08-31T10:08:16;8.55;;;5.55;;
74630;SDS011;63138;55.082;38.804;2023-08-31T10:10:44;8.57;;;5.37;;
74630;SDS011;63138;55.082;38.804;2023-08-31T10:13:10;10.73;;;5.30;;
74630;SDS011;63138;55.082;38.804;2023-08-31T10:15:37;8.15;;;4.78;;
74630;SDS011;63138;55.082;38.804;2023-08-31T10:18:04;10.90;;;5.30;;
74630;SDS011;63138;55.082;38.804;2023-08-31T10:20:32;9.00;;;5.32;;
74630;SDS011;63138;55.082;38.804;2023-08-31T10:23:02;7.53;;;5.10;;
74630;SDS011;63138;55.082;38.804;2023-08-31T10:28:18;11.65;;;5.72;;
74630;SDS011;63138;55.082;38.804;2023-08-31T10:33:34;7.55;;;4.95;;
74630;SDS011;63138;55.082;38.804;2023-08-31T10:36:34;6.80;;;5.30;;
74630;SDS011;63138;55.082;38.804;2023-08-31T10:39:15;9.82;;;5.63;;
74630;SDS011;63138;55.082;38.804;2023-08-31T10:41:44;8.00;;;5.38;;
74630;SDS011;63138;55.082;38.804;2023-08-31T10:44:19;11.75;;;5.60;;
74630;SDS011;63138;55.082;38.804;2023-08-31T10:46:46;10.23;;;5.72;;
74630;SDS011;63138;55.082;38.804;2023-08-31T10:49:14;8.43;;;5.33;;
74630;SDS011;63138;55.082;38.804;2023-08-31T10:52:16;10.35;;;5.25;;
74630;SDS011;63138;55.082;38.804;2023-08-31T10:54:43;9.73;;;5.75;;
74630;SDS011;63138;55.082;38.804;2023-08-31T10:57:12;9.52;;;5.50;;
74630;SDS011;63138;55.082;38.804;2023-08-31T10:59:52;12.45;;;6.65;;
74630;SDS011;63138;55.082;38.804;2023-08-31T11:02:35;9.03;;;5.33;;
74630;SDS011;63138;55.082;38.804;2023-08-31T11:05:07;8.80;;;5.28;;
74630;SDS011;63138;55.082;38.804;2023-08-31T11:07:36;9.27;;;5.00;;
74630;SDS011;63138;55.082;38.804;2023-08-31T11:10:08;13.43;;;5.97;;
74630;SDS011;63138;55.082;38.804;2023-08-31T11:12:49;15.05;;;5.53;;
74630;SDS011;63138;55.082;38.804;2023-08-31T11:15:18;11.20;;;6.20;;
74630;SDS011;63138;55.082;38.804;2023-08-31T11:17:49;9.68;;;5.32;;
74630;SDS011;63138;55.082;38.804;2023-08-31T11:20:16;13.13;;;5.60;;
74630;SDS011;63138;55.082;38.804;2023-08-31T11:22:44;9.07;;;5.65;;
74630;SDS011;63138;55.082;38.804;2023-08-31T11:25:20;8.98;;;5.50;;
74630;SDS011;63138;55.082;38.804;2023-08-31T11:27:58;11.20;;;6.20;;
74630;SDS011;63138;55.082;38.804;2023-08-31T11:30:26;11.18;;;5.68;;
74630;SDS011;63138;55.082;38.804;2023-08-31T11:32:53;10.82;;;5.97;;
74630;SDS011;63138;55.082;38.804;2023-08-31T11:35:20;12.13;;;6.13;;
74630;SDS011;63138;55.082;38.804;2023-08-31T11:37:51;13.20;;;5.82;;
74630;SDS011;63138;55.082;38.804;2023-08-31T11:40:20;13.30;;;5.93;;
74630;SDS011;63138;55.082;38.804;2023-08-31T11:42:47;10.75;;;5.80;;
74630;SDS011;63138;55.082;38.804;2023-08-31T11:45:15;11.48;;;6.05;;
74630;SDS011;63138;55.082;38.804;2023-08-31T11:47:41;9.80;;;6.05;;
74630;SDS011;63138;55.082;38.804;2023-08-31T11:50:09;14.63;;;6.07;;
74630;SDS011;63138;55.082;38.804;2023-08-31T11:52:36;9.87;;;5.73;;
74630;SDS011;63138;55.082;38.804;2023-08-31T11:55:15;9.77;;;6.40;;
74630;SDS011;63138;55.082;38.804;2023-08-31T11:57:53;10.10;;;6.40;;
74630;SDS011;63138;55.082;38.804;2023-08-31T12:00:20;10.75;;;6.18;;
74630;SDS011;63138;55.082;38.804;2023-08-31T12:03:02;10.85;;;6.40;;
74630;SDS011;63138;55.082;38.804;2023-08-31T12:05:43;11.20;;;6.23;;
74630;SDS011;63138;55.082;38.804;2023-08-31T12:08:14;9.32;;;5.93;;
74630;SDS011;63138;55.082;38.804;2023-08-31T12:10:41;11.18;;;6.63;;
74630;SDS011;63138;55.082;38.804;2023-08-31T12:13:08;12.82;;;6.40;;
74630;SDS011;63138;55.082;38.804;2023-08-31T12:15:34;10.07;;;6.22;;
74630;SDS011;63138;55.082;38.804;2023-08-31T12:20:54;10.25;;;6.38;;
74630;SDS011;63138;55.082;38.804;2023-08-31T12:23:20;8.75;;;5.85;;
74630;SDS011;63138;55.082;38.804;2023-08-31T12:25:49;10.40;;;6.32;;
74630;SDS011;63138;55.082;38.804;2023-08-31T12:28:19;8.90;;;5.57;;
74630;SDS011;63138;55.082;38.804;2023-08-31T12:30:50;10.15;;;5.43;;
74630;SDS011;63138;55.082;38.804;2023-08-31T12:33:17;8.20;;;5.80;;
74630;SDS011;63138;55.082;38.804;2023-08-31T12:35:43;10.85;;;6.15;;
74630;SDS011;63138;55.082;38.804;2023-08-31T12:38:09;10.63;;;5.70;;
74630;SDS011;63138;55.082;38.804;2023-08-31T12:40:36;11.32;;;5.00;;
74630;SDS011;63138;55.082;38.804;2023-08-31T12:43:04;8.50;;;5.82;;
74630;SDS011;63138;55.082;38.804;2023-08-31T12:45:30;11.48;;;6.13;;
74630;SDS011;63138;55.082;38.804;2023-08-31T12:47:56;8.43;;;5.85;;
74630;SDS011;63138;55.082;38.804;2023-08-31T12:50:22;12.33;;;6.20;;
74630;SDS011;63138;55.082;38.804;2023-08-31T12:52:48;13.00;;;6.15;;
74630;SDS011;63138;55.082;38.804;2023-08-31T12:55:14;8.37;;;5.00;;
74630;SDS011;63138;55.082;38.804;2023-08-31T12:57:41;10.43;;;5.77;;
74630;SDS011;63138;55.082;38.804;2023-08-31T13:00:08;9.80;;;5.28;;
74630;SDS011;63138;55.082;38.804;2023-08-31T13:02:39;8.25;;;5.68;;
74630;SDS011;63138;55.082;38.804;2023-08-31T13:05:09;12.63;;;6.47;;
74630;SDS011;63138;55.082;38.804;2023-08-31T13:07:35;10.55;;;5.68;;
74630;SDS011;63138;55.082;38.804;2023-08-31T13:10:02;13.83;;;5.60;;
74630;SDS011;63138;55.082;38.804;2023-08-31T13:12:32;10.40;;;5.07;;
74630;SDS011;63138;55.082;38.804;2023-08-31T13:14:59;8.48;;;4.72;;
74630;SDS011;63138;55.082;38.804;2023-08-31T13:17:26;12.25;;;5.88;;
74630;SDS011;63138;55.082;38.804;2023-08-31T13:19:53;8.55;;;5.75;;
74630;SDS011;63138;55.082;38.804;2023-08-31T13:22:19;8.17;;;4.57;;
74630;SDS011;63138;55.082;38.804;2023-08-31T13:24:46;8.82;;;5.20;;
74630;SDS011;63138;55.082;38.804;2023-08-31T13:27:12;14.48;;;6.93;;
74630;SDS011;63138;55.082;38.804;2023-08-31T13:29:41;16.25;;;7.80;;
74630;SDS011;63138;55.082;38.804;2023-08-31T13:32:08;19.70;;;9.30;;
74630;SDS011;63138;55.082;38.804;2023-08-31T13:34:34;14.98;;;8.15;;
74630;SDS011;63138;55.082;38.804;2023-08-31T13:37:00;13.30;;;7.03;;
74630;SDS011;63138;55.082;38.804;2023-08-31T13:39:26;11.03;;;5.73;;
74630;SDS011;63138;55.082;38.804;2023-08-31T13:41:52;14.20;;;6.35;;
74630;SDS011;63138;55.082;38.804;2023-08-31T13:44:19;11.77;;;6.32;;
74630;SDS011;63138;55.082;38.804;2023-08-31T13:46:48;10.30;;;6.50;;
74630;SDS011;63138;55.082;38.804;2023-08-31T13:49:33;9.45;;;5.43;;
74630;SDS011;63138;55.082;38.804;2023-08-31T13:52:00;8.93;;;5.00;;
74630;SDS011;63138;55.082;38.804;2023-08-31T13:54:26;8.90;;;4.68;;
74630;SDS011;63138;55.082;38.804;2023-08-31T13:56:52;10.02;;;5.50;;
74630;SDS011;63138;55.082;38.804;2023-08-31T13:59:17;15.60;;;6.20;;
74630;SDS011;63138;55.082;38.804;2023-08-31T14:01:43;9.95;;;5.45;;
74630;SDS011;63138;55.082;38.804;2023-08-31T14:04:09;8.93;;;5.23;;
74630;SDS011;63138;55.082;38.804;2023-08-31T14:06:35;8.82;;;5.88;;
74630;SDS011;63138;55.082;38.804;2023-08-31T14:09:01;11.15;;;5.65;;
74630;SDS011;63138;55.082;38.804;2023-08-31T14:11:30;10.82;;;6.28;;
74630;SDS011;63138;55.082;38.804;2023-08-31T14:14:05;12.53;;;6.13;;
74630;SDS011;63138;55.082;38.804;2023-08-31T14:16:34;11.50;;;5.70;;
74630;SDS011;63138;55.082;38.804;2023-08-31T14:19:02;13.02;;;6.05;;
74630;SDS011;63138;55.082;38.804;2023-08-31T14:21:28;11.45;;;6.05;;
74630;SDS011;63138;55.082;38.804;2023-08-31T14:23:54;12.10;;;5.70;;
74630;SDS011;63138;55.082;38.804;2023-08-31T14:26:21;10.60;;;5.50;;
74630;SDS011;63138;55.082;38.804;2023-08-31T14:28:49;8.88;;;5.60;;
74630;SDS011;63138;55.082;38.804;2023-08-31T14:31:17;11.63;;;6.07;;
74630;SDS011;63138;55.082;38.804;2023-08-31T14:33:43;11.73;;;5.80;;
74630;SDS011;63138;55.082;38.804;2023-08-31T14:36:09;9.10;;;5.38;;
74630;SDS011;63138;55.082;38.804;2023-08-31T14:38:35;10.40;;;5.72;;
74630;SDS011;63138;55.082;38.804;2023-08-31T14:41:01;9.67;;;6.03;;
74630;SDS011;63138;55.082;38.804;2023-08-31T14:43:27;10.63;;;5.32;;
74630;SDS011;63138;55.082;38.804;2023-08-31T14:45:53;10.30;;;6.35;;